createdAt,value
2023-03-26T08:57:18.364Z,100204.56
2023-03-26T11:55:12.670Z,100420.94
2023-03-26T22:02:01.733Z,101329.75
2023-03-26T22:04:57.934Z,101373.00
2023-03-26T22:07:49.656Z,101416.69
2023-03-26T22:10:19.374Z,101376.31
2023-03-26T22:12:45.948Z,101394.22
2023-03-26T22:15:15.421Z,101219.06
2023-03-26T22:17:42.207Z,101389.41
2023-03-26T22:20:13.861Z,101418.56
2023-03-26T22:22:41.634Z,101238.63
2023-03-26T22:25:10.412Z,101350.91
2023-03-26T22:27:44.308Z,101434.09
2023-03-26T22:30:12.331Z,101368.56
2023-03-26T22:32:39.073Z,101287.63
2023-03-26T22:35:07.756Z,101341.16
2023-03-26T22:37:35.631Z,101327.81
2023-03-26T22:40:02.236Z,101428.69
2023-03-26T22:42:28.920Z,101308.50
2023-03-26T22:44:55.457Z,101294.22
2023-03-26T22:47:22.424Z,101301.31
2023-03-26T22:49:49.015Z,101348.34
2023-03-26T22:52:15.667Z,101319.06
2023-03-26T22:54:42.230Z,101405.94
2023-03-26T22:57:08.858Z,101341.75
2023-03-26T22:59:35.612Z,101387.38
2023-03-26T23:02:02.439Z,101319.09
2023-03-26T23:04:32.208Z,101333.19
2023-03-26T23:06:59.035Z,101444.91
2023-03-26T23:09:25.889Z,101310.84
2023-03-26T23:11:56.718Z,101456.78
2023-03-26T23:14:23.685Z,101430.91
2023-03-26T23:16:58.011Z,101450.53
2023-03-26T23:19:24.729Z,101297.19
2023-03-26T23:21:51.528Z,101406.56
2023-03-26T23:24:26.902Z,101454.38
2023-03-26T23:26:53.436Z,101356.94
2023-03-26T23:29:20.262Z,101323.97
2023-03-26T23:31:47.067Z,101408.38
2023-03-26T23:34:14.224Z,101386.66
2023-03-26T23:36:41.941Z,101415.34
2023-03-26T23:39:10.860Z,101437.81
2023-03-26T23:41:38.021Z,101409.91
2023-03-26T23:44:04.607Z,101394.03
2023-03-26T23:46:34.589Z,101359.72
2023-03-26T23:49:04.230Z,101460.94
2023-03-26T23:51:31.950Z,101426.03
2023-03-26T23:53:59.756Z,101459.75
2023-03-26T23:56:29.829Z,101453.38
2023-03-26T23:58:56.490Z,101527.53
